Time;durP1;ratioP1;P1;durP2;ratioP2;P2;SDS_P1;SDS_P2;PMS_P1;PMS_P2;Temp;Humidity;BMP_temperature;BMP_pressure;BME280_temperature;BME280_humidity;BME280_pressure;Samples;Min_cycle;Max_cycle;Signal;HPM_P1;HPM_P2
2020/12/03 00:00:57;;;;;;;81.47;31.65;;;;;;;-3.12;81.80;100608.70;1781537;80;21183;-71
2020/12/03 00:03:39;;;;;;;85.20;38.65;;;;;;;-3.08;81.81;100600.25;1786085;80;21451;-71
2020/12/03 00:06:14;;;;;;;90.15;39.20;;;;;;;-3.09;81.81;100594.64;1779132;80;21117;-71
2020/12/03 00:08:42;;;;;;;87.17;33.25;;;;;;;-3.13;81.82;100594.45;1785075;80;21160;-71
2020/12/03 00:11:08;;;;;;;90.83;38.15;;;;;;;-3.15;81.83;100583.23;1753981;80;21407;-71
2020/12/03 00:13:35;;;;;;;92.92;36.73;;;;;;;-3.17;81.83;100583.78;1783886;80;21155;-72
2020/12/03 00:16:02;;;;;;;83.72;34.75;;;;;;;-3.16;81.84;100577.17;1776081;80;21163;-71
2020/12/03 00:18:31;;;;;;;81.00;33.83;;;;;;;-3.17;81.85;100569.45;1762757;80;21131;-72
2020/12/03 00:20:58;;;;;;;97.97;42.55;;;;;;;-3.19;81.87;100563.45;1776328;80;21516;-72
2020/12/03 00:23:25;;;;;;;79.77;34.50;;;;;;;-3.19;81.86;100567.36;1777156;80;21618;-72
2020/12/03 00:25:53;;;;;;;103.87;44.10;;;;;;;-3.15;81.86;100566.28;1784654;80;21171;-72
2020/12/03 00:28:22;;;;;;;95.42;38.58;;;;;;;-3.18;81.89;100563.84;1755091;80;21187;-71
2020/12/03 00:30:49;;;;;;;102.82;43.38;;;;;;;-3.16;81.91;100567.20;1756694;80;21644;-71
2020/12/03 00:33:17;;;;;;;114.35;42.62;;;;;;;-3.12;81.90;100572.64;1755120;81;21592;-71
2020/12/03 00:35:46;;;;;;;108.90;45.30;;;;;;;-3.09;81.90;100571.17;1783849;80;21703;-71
2020/12/03 00:38:14;;;;;;;66.28;27.82;;;;;;;-3.11;81.87;100566.05;1758280;80;21206;-71
2020/12/03 00:40:41;;;;;;;87.62;35.08;;;;;;;-3.12;81.88;100558.30;1755390;80;21640;-71
2020/12/03 00:43:07;;;;;;;84.85;37.53;;;;;;;-3.15;81.87;100553.24;1754311;80;21195;-71
2020/12/03 00:45:33;;;;;;;101.10;37.60;;;;;;;-3.17;81.87;100561.16;1776883;80;21183;-71
2020/12/03 00:47:59;;;;;;;96.40;38.33;;;;;;;-3.17;81.88;100562.92;1778937;80;21206;-72
2020/12/03 00:50:27;;;;;;;95.32;40.00;;;;;;;-3.16;81.88;100559.37;1786204;80;21251;-72
2020/12/03 00:52:53;;;;;;;97.78;38.53;;;;;;;-3.11;81.87;100562.59;1777856;80;21136;-72
2020/12/03 00:55:20;;;;;;;82.75;34.63;;;;;;;-3.12;81.88;100564.81;1790892;79;21123;-71
2020/12/03 00:57:46;;;;;;;76.25;30.30;;;;;;;-3.15;81.90;100541.51;1756101;80;21577;-72
2020/12/03 01:00:14;;;;;;;85.75;34.85;;;;;;;-3.19;81.87;100538.67;1733515;81;21207;-71
2020/12/03 01:02:41;;;;;;;77.15;32.50;;;;;;;-3.21;81.85;100541.84;1759792;81;21224;-71
2020/12/03 01:05:10;;;;;;;76.07;32.58;;;;;;;-3.19;81.87;100543.89;1735171;81;21639;-71
2020/12/03 01:07:37;;;;;;;82.37;34.70;;;;;;;-3.20;81.84;100537.02;1759762;81;21617;-71
2020/12/03 01:10:06;;;;;;;82.80;33.20;;;;;;;-3.21;81.89;100536.63;1733173;81;21147;-71
2020/12/03 01:12:32;;;;;;;83.90;33.58;;;;;;;-3.23;81.86;100534.53;1734457;81;22088;-71
2020/12/03 01:14:58;;;;;;;87.65;37.53;;;;;;;-3.23;81.84;100525.41;1735958;81;21150;-71
2020/12/03 01:17:25;;;;;;;83.67;37.15;;;;;;;-3.25;81.86;100522.90;1759567;81;21927;-71
2020/12/03 01:19:51;;;;;;;71.62;28.85;;;;;;;-3.26;81.84;100522.97;1737427;81;21183;-71
2020/12/03 01:22:18;;;;;;;81.92;34.85;;;;;;;-3.28;81.85;100514.39;1755538;81;21148;-71
2020/12/03 01:24:44;;;;;;;110.70;41.77;;;;;;;-3.31;81.83;100511.95;1759948;80;21186;-71
2020/12/03 01:27:11;;;;;;;138.43;44.83;;;;;;;-3.32;81.83;100511.56;1733244;82;21177;-71
2020/12/03 01:29:39;;;;;;;102.25;37.85;;;;;;;-3.34;81.82;100510.81;1762073;80;21151;-71
2020/12/03 01:32:06;;;;;;;90.83;34.10;;;;;;;-3.35;81.81;100508.66;1733585;82;21173;-71
2020/12/03 01:34:32;;;;;;;125.53;45.85;;;;;;;-3.36;81.81;100498.30;1783717;80;21140;-71
2020/12/03 01:36:58;;;;;;;124.75;42.50;;;;;;;-3.38;81.80;100496.25;1767828;81;22113;-70
2020/12/03 01:39:25;;;;;;;99.90;37.05;;;;;;;-3.40;81.79;100491.56;1775638;80;21139;-71
2020/12/03 01:41:51;;;;;;;79.85;32.53;;;;;;;-3.38;81.80;100493.64;1749466;81;21182;-70
2020/12/03 01:44:43;;;;;;;84.92;33.88;;;;;;;-3.38;81.80;100500.16;1763325;81;21155;-71
2020/12/03 01:47:31;;;;;;;91.08;35.40;;;;;;;-3.38;81.80;100506.67;1763695;81;21123;-71
2020/12/03 01:49:58;;;;;;;88.80;34.70;;;;;;;-3.39;81.78;100507.59;1732719;81;21280;-71
2020/12/03 01:52:24;;;;;;;86.70;35.85;;;;;;;-3.37;81.79;100496.61;1715537;81;21186;-71
2020/12/03 01:54:51;;;;;;;75.65;33.38;;;;;;;-3.37;81.79;100490.94;1760981;80;21188;-71
2020/12/03 01:57:52;;;;;;;83.07;35.38;;;;;;;-3.36;81.78;100490.02;1786903;80;21151;-71
2020/12/03 02:00:18;;;;;;;75.78;32.58;;;;;;;-3.31;81.78;100487.19;1786639;79;21639;-71
2020/12/03 02:02:48;;;;;;;87.10;37.45;;;;;;;-3.29;81.76;100478.81;1785107;80;21197;-70
2020/12/03 02:05:25;;;;;;;81.45;31.95;;;;;;;-3.26;81.77;100472.97;1790824;80;22440;-71
2020/12/03 02:07:51;;;;;;;115.90;46.05;;;;;;;-3.25;81.76;100463.39;1773570;79;21205;-71
2020/12/03 02:10:21;;;;;;;75.52;32.17;;;;;;;-3.25;81.77;100463.39;1751623;81;21151;-71
2020/12/03 02:12:48;;;;;;;73.62;31.17;;;;;;;-3.28;81.76;100461.80;1778959;80;21172;-71
2020/12/03 02:15:14;;;;;;;80.90;33.80;;;;;;;-3.32;81.73;100458.12;1767442;80;21259;-71
2020/12/03 02:17:41;;;;;;;71.12;30.17;;;;;;;-3.35;81.72;100460.89;1748249;82;21141;-71
2020/12/03 02:20:14;;;;;;;86.10;35.73;;;;;;;-3.36;81.73;100467.02;1777659;80;21129;-71
2020/12/03 02:22:40;;;;;;;83.80;32.63;;;;;;;-3.37;81.70;100473.14;1747746;80;21195;-71
2020/12/03 02:25:08;;;;;;;89.85;39.42;;;;;;;-3.38;81.71;100462.36;1755393;81;21203;-71
2020/12/03 02:27:37;;;;;;;92.55;40.12;;;;;;;-3.34;81.68;100463.89;1756395;81;21216;-70
2020/12/03 02:30:08;;;;;;;101.90;43.60;;;;;;;-3.29;81.70;100461.86;1758389;80;21172;-70
2020/12/03 02:32:34;;;;;;;84.35;36.00;;;;;;;-3.25;81.69;100459.48;1756556;80;21170;-70
2020/12/03 02:35:00;;;;;;;90.42;37.17;;;;;;;-3.22;81.70;100458.01;1756659;80;21161;-70
2020/12/03 02:37:28;;;;;;;92.00;37.20;;;;;;;-3.25;81.67;100449.05;1756653;80;21622;-69
2020/12/03 02:39:54;;;;;;;82.67;34.13;;;;;;;-3.24;81.69;100441.61;1756323;81;22460;-70
2020/12/03 02:42:22;;;;;;;94.35;41.80;;;;;;;-3.22;81.69;100439.75;1756427;81;21652;-70
2020/12/03 02:44:48;;;;;;;86.17;36.30;;;;;;;-3.24;81.67;100439.85;1734124;80;21144;-70
2020/12/03 02:47:18;;;;;;;91.75;39.42;;;;;;;-3.23;81.68;100431.55;1787064;80;21123;-70
2020/12/03 02:49:45;;;;;;;;;;;;;;;-3.22;81.67;100425.41;1786071;80;21155;-70
2020/12/03 02:52:13;;;;;;;79.50;32.85;;;;;;;-3.22;81.66;100417.59;1773080;80;22063;-71
2020/12/03 02:54:40;;;;;;;88.52;39.83;;;;;;;-3.22;81.69;100409.31;1756322;81;21223;-70
2020/12/03 02:57:08;;;;;;;83.33;34.55;;;;;;;-3.23;81.68;100399.80;1756491;80;21754;-70
2020/12/03 02:59:34;;;;;;;87.55;36.28;;;;;;;-3.25;81.67;100392.99;1764483;80;21571;-70
2020/12/03 03:02:00;;;;;;;84.32;33.42;;;;;;;-3.27;81.66;100388.33;1758575;80;21143;-70
2020/12/03 03:04:26;;;;;;;77.55;34.73;;;;;;;-3.26;81.65;100395.20;1756269;81;21912;-71
2020/12/03 03:06:53;;;;;;;78.92;34.18;;;;;;;-3.28;81.65;100390.55;1756342;81;21147;-71
2020/12/03 03:09:20;;;;;;;77.55;34.60;;;;;;;-3.27;81.65;100390.94;1758444;80;21103;-71
2020/12/03 03:11:47;;;;;;;80.92;35.20;;;;;;;-3.25;81.64;100385.17;1756435;81;21150;-71
2020/12/03 03:14:13;;;;;;;81.57;36.88;;;;;;;-3.24;81.65;100384.25;1756785;80;21143;-71
2020/12/03 03:16:40;;;;;;;80.75;35.43;;;;;;;-3.22;81.64;100389.75;1758972;80;21144;-71
2020/12/03 03:19:06;;;;;;;82.30;37.20;;;;;;;-3.21;81.64;100371.05;1756380;81;21154;-70
2020/12/03 03:21:32;;;;;;;85.03;35.33;;;;;;;-3.17;81.62;100371.27;1783378;80;21770;-70
2020/12/03 03:23:58;;;;;;;81.97;35.10;;;;;;;-3.14;81.62;100375.84;1781156;80;21180;-71
2020/12/03 03:26:25;;;;;;;84.47;34.95;;;;;;;-3.12;81.63;100370.53;1725535;81;21215;-70
2020/12/03 03:28:51;;;;;;;84.22;36.60;;;;;;;-3.10;81.62;100373.91;1749949;80;21257;-71
2020/12/03 03:31:17;;;;;;;75.75;33.05;;;;;;;-3.10;81.60;100376.52;1760728;80;21187;-71
2020/12/03 03:33:44;;;;;;;90.07;37.23;;;;;;;-3.09;81.64;100371.66;1779876;80;21572;-71
2020/12/03 03:36:10;;;;;;;79.97;35.03;;;;;;;-3.07;81.62;100373.73;1787640;80;21194;-70
2020/12/03 03:38:37;;;;;;;81.90;35.43;;;;;;;-3.07;81.61;100377.19;1787645;80;22313;-71
2020/12/03 03:41:04;;;;;;;80.40;33.00;;;;;;;-3.04;81.62;100372.27;1768348;79;21197;-71
2020/12/03 03:43:30;;;;;;;85.10;35.90;;;;;;;-3.05;81.60;100378.39;1756562;81;21138;-71
2020/12/03 03:45:56;;;;;;;77.08;34.03;;;;;;;-3.07;81.59;100380.26;1757143;80;21143;-70
2020/12/03 03:48:23;;;;;;;84.00;31.15;;;;;;;-3.06;81.62;100361.90;1756574;81;21174;-70
2020/12/03 03:50:49;;;;;;;78.20;32.48;;;;;;;-3.06;81.58;100362.36;1779156;79;21119;-70
2020/12/03 03:53:15;;;;;;;74.15;33.25;;;;;;;-3.10;81.56;100360.38;1792722;79;21257;-70
2020/12/03 03:55:41;;;;;;;88.37;34.23;;;;;;;-3.12;81.55;100355.73;1791521;80;21207;-71
2020/12/03 03:58:08;;;;;;;83.78;34.18;;;;;;;-3.13;81.51;100355.83;1791483;80;21115;-71
2020/12/03 04:00:41;;;;;;;82.82;33.83;;;;;;;-3.15;81.51;100358.97;1791645;80;21182;-70
2020/12/03 04:03:12;;;;;;;80.28;33.67;;;;;;;-3.18;81.50;100357.84;1790701;80;21573;-70
2020/12/03 04:05:37;;;;;;;79.12;31.65;;;;;;;-3.18;81.49;100350.02;1786280;79;21227;-70
2020/12/03 04:08:03;;;;;;;80.97;31.87;;;;;;;-3.19;81.48;100348.32;1791205;80;21171;-71
2020/12/03 04:10:29;;;;;;;74.40;30.88;;;;;;;-3.23;81.48;100340.28;1791351;80;21159;-70
2020/12/03 04:12:55;;;;;;;85.40;35.38;;;;;;;-3.27;81.47;100340.91;1791717;80;21124;-71
2020/12/03 04:15:23;;;;;;;77.72;33.48;;;;;;;-3.28;81.45;100336.65;1791532;80;21163;-70
2020/12/03 04:17:49;;;;;;;82.97;33.83;;;;;;;-3.27;81.47;100335.70;1791565;80;21180;-70
2020/12/03 04:20:16;;;;;;;92.37;39.42;;;;;;;-3.23;81.44;100331.16;1789199;80;21183;-70
2020/12/03 04:22:43;;;;;;;85.17;33.53;;;;;;;-3.21;81.46;100331.94;1791326;80;21199;-71
2020/12/03 04:25:10;;;;;;;82.45;34.78;;;;;;;-3.19;81.45;100309.20;1791482;80;21171;-71
2020/12/03 04:27:36;;;;;;;93.05;36.70;;;;;;;-3.18;81.45;100322.17;1791524;80;21191;-71
2020/12/03 04:30:05;;;;;;;78.92;31.12;;;;;;;-3.20;81.45;100313.58;1789583;80;21192;-71
2020/12/03 04:32:31;;;;;;;93.72;38.50;;;;;;;-3.20;81.44;100299.23;1791373;80;21171;-71
2020/12/03 04:37:43;;;;;;;79.00;35.08;;;;;;;-3.13;81.43;100295.85;1823882;77;28146;-71
2020/12/03 04:40:10;;;;;;;80.03;34.20;;;;;;;-3.18;81.43;100295.25;1757104;80;21556;-71
2020/12/03 04:42:36;;;;;;;88.75;39.38;;;;;;;-3.20;81.41;100291.91;1703202;80;22092;-71
2020/12/03 04:45:25;;;;;;;75.05;32.85;;;;;;;-3.20;81.42;100291.91;1696553;83;21655;-71
2020/12/03 04:51:26;;;;;;;83.85;35.45;;;;;;;-3.22;81.41;100280.25;1702756;84;21182;-71
2020/12/03 04:54:27;;;;;;;79.50;33.13;;;;;;;-3.21;81.40;100282.39;1703239;83;21679;-72
2020/12/03 04:57:04;;;;;;;85.15;35.70;;;;;;;-3.22;81.40;100275.48;1703211;83;22111;-72
2020/12/03 05:00:06;;;;;;;85.75;34.88;;;;;;;-3.24;81.40;100278.66;1674853;84;21243;-71
2020/12/03 05:02:53;;;;;;;83.97;36.75;;;;;;;-3.25;81.39;100270.45;1727788;83;21195;-71
2020/12/03 05:05:55;;;;;;;163.35;75.55;;;;;;;-3.27;81.39;100254.06;1711773;83;21208;-72
2020/12/03 05:08:27;;;;;;;99.95;46.23;;;;;;;-3.28;81.40;100253.22;1725729;83;21211;-72
2020/12/03 05:10:53;;;;;;;119.37;56.60;;;;;;;-3.29;81.39;100252.84;1706223;82;21597;-71
2020/12/03 05:13:25;;;;;;;134.35;63.73;;;;;;;-3.28;81.38;100253.68;1737440;82;21196;-72
2020/12/03 05:15:58;;;;;;;170.38;82.02;;;;;;;-3.29;81.38;100248.08;1697428;84;21682;-71
2020/12/03 05:18:54;;;;;;;219.43;105.87;;;;;;;-3.29;81.38;100257.20;1673504;84;21137;-71
2020/12/03 05:21:26;;;;;;;168.90;78.07;;;;;;;-3.29;81.35;100255.91;1705115;83;21195;-71
2020/12/03 05:23:52;;;;;;;140.70;62.13;;;;;;;-3.30;81.37;100257.66;1726551;83;21209;-71
2020/12/03 05:26:25;;;;;;;141.12;63.28;;;;;;;-3.29;81.40;100255.44;1703108;83;21182;-71
2020/12/03 05:29:06;;;;;;;105.17;44.63;;;;;;;-3.27;81.38;100255.38;1723360;83;21198;-71
2020/12/03 05:31:42;;;;;;;103.70;42.85;;;;;;;-3.28;81.38;100248.47;1724569;83;21667;-71
2020/12/03 05:34:16;;;;;;;167.65;62.55;;;;;;;-3.30;81.38;100235.50;1724707;83;21159;-71
2020/12/03 05:37:00;;;;;;;210.08;76.22;;;;;;;-3.29;81.39;100242.87;1726813;83;22156;-71
2020/12/03 05:39:35;;;;;;;145.85;50.63;;;;;;;-3.31;81.40;100235.61;1699415;83;21159;-71
2020/12/03 05:42:04;;;;;;;154.42;59.27;;;;;;;-3.31;81.39;100236.91;1687206;83;21510;-71
2020/12/03 05:44:42;;;;;;;164.47;57.60;;;;;;;-3.33;81.39;100216.59;1672284;84;21186;-71
2020/12/03 05:47:36;;;;;;;141.65;51.48;;;;;;;-3.32;81.40;100228.70;1707565;83;21132;-72
2020/12/03 05:50:16;;;;;;;135.32;49.40;;;;;;;-3.32;81.40;100223.49;1741406;81;21187;-71
2020/12/03 05:53:15;;;;;;;157.55;60.33;;;;;;;-3.33;81.41;100220.50;1790462;80;21195;-71
2020/12/03 05:55:41;;;;;;;113.47;46.90;;;;;;;-3.32;81.42;100213.06;1790411;80;21159;-71
2020/12/03 05:58:29;;;;;;;115.77;48.05;;;;;;;-3.33;81.42;100204.40;1790502;80;21735;-71
2020/12/03 06:01:07;;;;;;;95.83;38.67;;;;;;;-3.31;81.45;100197.81;1789640;80;21684;-71
2020/12/03 06:04:04;;;;;;;98.40;39.63;;;;;;;-3.32;81.42;100198.73;1790418;80;21175;-71
2020/12/03 06:06:50;;;;;;;91.42;38.33;;;;;;;-3.33;81.43;100197.88;1790258;80;21163;-71
2020/12/03 06:09:43;;;;;;;93.42;39.92;;;;;;;-3.32;81.45;100196.97;1789756;80;21754;-71
2020/12/03 06:12:56;;;;;;;102.30;43.58;;;;;;;-3.29;81.43;100198.55;1790276;80;21198;-71
2020/12/03 06:15:48;;;;;;;105.17;40.08;;;;;;;-3.27;81.43;100187.59;1765507;80;21648;-71
2020/12/03 06:18:56;;;;;;;92.20;39.65;;;;;;;-3.21;81.45;100185.92;1759856;80;21569;-71
2020/12/03 06:21:42;;;;;;;118.28;46.53;;;;;;;-3.19;81.43;100194.02;1790183;80;21175;-71
2020/12/03 06:24:55;;;;;;;111.47;42.50;;;;;;;-3.14;81.44;100200.28;1773602;80;21228;-71
2020/12/03 06:27:35;;;;;;;103.20;40.05;;;;;;;-3.08;81.44;100202.53;1738495;80;21603;-71
2020/12/03 06:30:13;;;;;;;92.95;37.53;;;;;;;-3.03;81.44;100200.51;1763397;80;21612;-71
2020/12/03 06:33:03;;;;;;;91.30;35.20;;;;;;;-3.00;81.42;100201.62;1725345;81;21282;-71
2020/12/03 06:35:46;;;;;;;88.80;35.30;;;;;;;-2.98;81.44;100201.06;1761439;80;21160;-71
2020/12/03 06:38:39;;;;;;;86.45;33.98;;;;;;;-2.93;81.42;100200.34;1770970;80;21711;-71
2020/12/03 06:41:31;;;;;;;100.18;38.50;;;;;;;-2.91;81.40;100201.54;1738750;80;21120;-71
2020/12/03 06:44:27;;;;;;;579.70;187.72;;;;;;;-2.88;81.41;100202.20;1774586;80;21585;-71
2020/12/03 06:47:23;;;;;;;383.23;112.42;;;;;;;-2.83;81.40;100201.94;1773485;80;21207;-71
2020/12/03 06:50:20;;;;;;;309.27;87.47;;;;;;;-2.80;81.40;100206.52;1739154;80;21184;-71
2020/12/03 06:53:14;;;;;;;275.55;77.60;;;;;;;-2.74;81.39;100202.23;1703262;81;21147;-71
2020/12/03 06:56:21;;;;;;;325.05;88.62;;;;;;;-2.73;81.38;100203.91;1720095;82;21208;-71
2020/12/03 06:59:20;;;;;;;154.32;55.10;;;;;;;-2.69;81.41;100200.20;1747340;82;21200;-71
2020/12/03 07:02:26;;;;;;;328.37;106.20;;;;;;;-2.66;81.35;100204.38;1724800;82;21297;-71
2020/12/03 07:05:27;;;;;;;259.75;86.47;;;;;;;-2.63;81.33;100198.52;1738314;82;21606;-71
2020/12/03 07:08:16;;;;;;;149.30;51.63;;;;;;;-2.60;81.33;100202.24;1728668;82;22312;-71
2020/12/03 07:11:17;;;;;;;152.70;51.02;;;;;;;-2.58;81.30;100195.18;1737853;82;21148;-71
2020/12/03 07:14:25;;;;;;;200.68;70.72;;;;;;;-2.56;81.29;100201.13;1729287;82;21132;-71
2020/12/03 07:17:19;;;;;;;163.92;54.63;;;;;;;-2.49;81.26;100200.75;1745424;81;22038;-71
2020/12/03 07:20:21;;;;;;;146.45;51.42;;;;;;;-2.48;81.26;100199.38;1729304;82;21171;-71
2020/12/03 07:22:58;;;;;;;146.05;53.35;;;;;;;-2.47;81.24;100204.13;1728191;82;21156;-72
2020/12/03 07:25:24;;;;;;;140.00;51.65;;;;;;;-2.44;81.22;100202.17;1715039;82;21196;-71
2020/12/03 07:28:20;;;;;;;192.37;74.87;;;;;;;-2.42;81.22;100198.14;1746687;82;21180;-72
2020/12/03 07:30:54;;;;;;;171.50;61.68;;;;;;;-2.37;81.20;100205.25;1716957;82;21296;-72
2020/12/03 07:33:29;;;;;;;156.00;57.75;;;;;;;-2.35;81.18;100204.22;1732511;82;21179;-72
2020/12/03 07:36:37;;;;;;;235.53;82.02;;;;;;;-2.35;81.15;100193.77;1731720;82;21156;-71
2020/12/03 07:39:19;;;;;;;187.40;67.00;;;;;;;-2.33;81.15;100196.30;1728419;82;21183;-72
2020/12/03 07:41:53;;;;;;;169.75;65.80;;;;;;;-2.35;81.14;100187.70;1720524;82;21629;-72
2020/12/03 07:44:41;;;;;;;223.15;98.75;;;;;;;-2.34;81.13;100186.78;1747637;82;21299;-72
2020/12/03 07:47:24;;;;;;;184.35;71.47;;;;;;;-2.34;81.11;100184.17;1741816;82;21192;-72
2020/12/03 07:49:52;;;;;;;190.53;74.58;;;;;;;-2.34;81.12;100186.31;1733377;80;21160;-72
2020/12/03 07:52:26;;;;;;;198.38;75.30;;;;;;;-2.32;81.12;100183.63;1778129;80;21573;-72
2020/12/03 07:54:53;;;;;;;165.37;64.70;;;;;;;-2.32;81.11;100188.84;1775064;80;21230;-72
2020/12/03 07:57:40;;;;;;;165.03;63.60;;;;;;;-2.29;81.14;100186.05;1775783;80;21192;-71
2020/12/03 08:00:35;;;;;;;153.15;61.33;;;;;;;-2.26;81.12;100180.63;1778655;80;21168;-71
2020/12/03 08:03:02;;;;;;;150.12;55.35;;;;;;;-2.25;81.13;100183.63;1774123;80;21167;-71
2020/12/03 08:05:51;;;;;;;137.35;54.93;;;;;;;-2.25;81.14;100185.74;1750106;80;21113;-72
2020/12/03 08:08:31;;;;;;;138.80;59.43;;;;;;;-2.25;81.16;100184.93;1748480;82;21152;-72
2020/12/03 08:10:57;;;;;;;125.97;50.30;;;;;;;-2.24;81.17;100180.90;1765121;80;21299;-72
2020/12/03 08:13:37;;;;;;;236.72;87.97;;;;;;;-2.25;81.19;100171.88;1758092;80;21144;-72
2020/12/03 08:16:10;;;;;;;161.00;59.00;;;;;;;-2.27;81.21;100179.78;1773844;80;21577;-72
2020/12/03 08:18:46;;;;;;;115.67;46.30;;;;;;;-2.28;81.21;100175.95;1774072;80;21587;-72
2020/12/03 08:21:15;;;;;;;123.02;52.25;;;;;;;-2.28;81.24;100181.17;1748116;82;21180;-72
2020/12/03 08:23:50;;;;;;;160.57;58.20;;;;;;;-2.30;81.26;100172.61;1771122;80;21169;-72
2020/12/03 08:26:24;;;;;;;138.90;50.33;;;;;;;-2.32;81.27;100172.69;1768634;80;21207;-71
2020/12/03 08:28:50;;;;;;;153.15;57.67;;;;;;;-2.33;81.29;100166.27;1761288;80;21156;-72
2020/12/03 08:31:16;;;;;;;170.25;56.88;;;;;;;-2.31;81.32;100170.92;1773722;80;21147;-72
2020/12/03 08:33:42;;;;;;;170.82;64.40;;;;;;;-2.31;81.35;100172.23;1761767;80;21588;-72
2020/12/03 08:36:09;;;;;;;462.30;123.62;;;;;;;-2.29;81.36;100167.77;1761095;80;22106;-72
2020/12/03 08:41:18;;;;;;;450.75;146.82;;;;;;;-2.20;81.43;100160.66;1852291;77;28754;-72
2020/12/03 08:46:34;;;;;;;489.95;151.75;;;;;;;-2.18;81.50;100156.20;1808668;77;29084;-72
2020/12/03 08:49:05;;;;;;;558.40;167.93;;;;;;;-2.19;81.53;100159.73;1776137;80;21182;-71
2020/12/03 08:51:30;;;;;;;181.47;57.43;;;;;;;-2.14;81.56;100152.44;1770493;78;21297;-71
2020/12/03 08:53:57;;;;;;;412.40;125.87;;;;;;;-2.11;81.57;100158.80;1787824;79;21167;-71
2020/12/03 08:56:31;;;;;;;453.10;127.22;;;;;;;-2.11;81.61;100149.66;1778629;80;21139;-71
2020/12/03 08:59:08;;;;;;;388.50;120.02;;;;;;;-2.06;81.65;100151.49;1777584;80;21199;-71
2020/12/03 09:01:43;;;;;;;292.98;95.60;;;;;;;-2.03;81.71;100148.69;1710015;81;21192;-72
2020/12/03 09:04:10;;;;;;;432.15;153.02;;;;;;;-1.96;81.73;100147.83;1726201;81;21203;-72
2020/12/03 09:06:48;;;;;;;371.52;110.90;;;;;;;-1.95;81.74;100138.59;1701671;83;21601;-72
2020/12/03 09:09:20;;;;;;;254.80;79.45;;;;;;;-1.90;81.80;100137.01;1742390;81;21147;-73
2020/12/03 09:11:47;;;;;;;301.58;97.10;;;;;;;-1.88;81.81;100133.35;1739279;80;21235;-75
2020/12/03 09:14:13;;;;;;;182.68;65.62;;;;;;;-1.83;81.85;100136.49;1694666;83;21624;-75
2020/12/03 09:16:40;;;;;;;264.52;97.60;;;;;;;-1.80;81.89;100129.78;1737767;81;21184;-74
2020/12/03 09:19:06;;;;;;;190.68;66.10;;;;;;;-1.78;81.91;100125.75;1725540;81;21168;-74
2020/12/03 09:21:33;;;;;;;285.00;105.37;;;;;;;-1.77;81.92;100125.67;1689857;83;21176;-74
2020/12/03 09:23:59;;;;;;;193.05;68.30;;;;;;;-1.76;81.96;100112.95;1683125;83;21145;-74
2020/12/03 09:26:32;;;;;;;196.02;72.17;;;;;;;-1.70;82.00;100113.88;1695114;83;21205;-74
2020/12/03 09:28:59;;;;;;;188.25;74.42;;;;;;;-1.67;82.03;100103.22;1695170;84;21196;-73
2020/12/03 09:31:26;;;;;;;170.38;70.00;;;;;;;-1.61;82.07;100102.81;1696897;84;21156;-74
2020/12/03 09:33:52;;;;;;;211.00;106.52;;;;;;;-1.55;82.09;100095.05;1695312;84;21244;-74
2020/12/03 09:36:19;;;;;;;182.65;69.07;;;;;;;-1.52;82.14;100086.54;1695305;84;21168;-74
2020/12/03 09:38:48;;;;;;;178.65;64.17;;;;;;;-1.49;82.14;100082.03;1697320;84;21570;-74
2020/12/03 09:41:20;;;;;;;182.40;67.70;;;;;;;-1.45;82.19;100078.28;1730748;82;21268;-74
2020/12/03 09:43:48;;;;;;;124.72;51.73;;;;;;;-1.42;82.21;100078.91;1729751;82;21195;-74
2020/12/03 09:46:19;;;;;;;143.78;58.80;;;;;;;-1.38;82.22;100084.78;1704632;82;21227;-75
2020/12/03 09:48:43;;;;;;;114.35;46.48;;;;;;;-1.34;82.27;100077.09;1707822;82;21172;-75
2020/12/03 09:51:09;;;;;;;127.95;55.28;;;;;;;-1.34;82.27;100065.33;1685749;84;21164;-75
2020/12/03 09:53:36;;;;;;;102.10;42.83;;;;;;;-1.30;82.31;100053.73;1707082;84;21279;-76
2020/12/03 09:56:03;;;;;;;106.27;43.63;;;;;;;-1.26;82.35;100052.55;1706983;84;21562;-75
2020/12/03 09:58:29;;;;;;;94.75;41.10;;;;;;;-1.21;82.37;100049.17;1663154;85;21505;-75
2020/12/03 10:01:00;;;;;;;80.97;37.30;;;;;;;-1.15;82.40;100056.12;1705398;83;21375;-74
2020/12/03 10:03:47;;;;;;;103.05;44.35;;;;;;;-1.08;82.43;100046.91;1719922;83;21231;-75
2020/12/03 10:06:38;;;;;;;96.42;41.88;;;;;;;-1.00;82.49;100045.09;1721020;83;21294;-75
2020/12/03 10:09:30;;;;;;;96.35;46.83;;;;;;;-0.93;82.52;100028.48;1693917;84;21207;-75
2020/12/03 10:12:07;;;;;;;112.10;44.48;;;;;;;-0.89;82.54;100037.80;1693414;84;21255;-75
2020/12/03 10:15:06;;;;;;;475.72;248.78;;;;;;;-0.87;82.58;100028.89;1693850;84;21148;-75
2020/12/03 10:17:53;;;;;;;157.30;70.28;;;;;;;-0.84;82.60;100023.44;1684159;84;21159;-75
2020/12/03 10:20:20;;;;;;;105.87;54.03;;;;;;;-0.80;82.64;100024.91;1684161;83;22206;-75
2020/12/03 10:23:06;;;;;;;89.05;37.93;;;;;;;-0.77;82.69;100019.45;1718274;83;21168;-75
2020/12/03 10:25:32;;;;;;;92.27;46.63;;;;;;;-0.77;82.73;100007.67;1693621;84;21789;-74
2020/12/03 10:28:06;;;;;;;91.20;39.23;;;;;;;-0.74;82.76;100008.76;1694192;84;21136;-75
2020/12/03 10:30:45;;;;;;;96.72;41.20;;;;;;;-0.63;82.80;100004.91;1854144;75;22597;-74
2020/12/03 10:33:16;;;;;;;103.92;45.98;;;;;;;-0.69;82.80;99988.34;1820508;78;21123;-74
2020/12/03 10:35:48;;;;;;;113.75;45.10;;;;;;;-0.70;82.87;99981.42;1827344;78;21543;-75
2020/12/03 10:38:22;;;;;;;118.50;44.95;;;;;;;-0.71;82.90;99979.77;1827385;78;21178;-75
2020/12/03 10:40:53;;;;;;;118.57;45.40;;;;;;;-0.69;82.93;99973.94;1827350;78;21568;-75
2020/12/03 10:46:15;;;;;;;105.80;45.25;;;;;;;-0.62;83.00;99950.30;1851496;77;22603;-74
2020/12/03 10:48:47;;;;;;;101.40;46.28;;;;;;;-0.66;83.01;99961.09;1824305;78;21100;-74
2020/12/03 10:51:13;;;;;;;102.80;42.13;;;;;;;-0.68;83.05;99952.53;1823714;78;21261;-75
2020/12/03 10:53:45;;;;;;;154.65;56.58;;;;;;;-0.66;83.07;99940.99;1824207;78;21013;-75
2020/12/03 10:56:12;;;;;;;158.70;60.90;;;;;;;-0.70;83.06;99938.23;1824093;78;21612;-75
2020/12/03 10:58:54;;;;;;;184.30;63.10;;;;;;;-0.74;83.10;99943.31;1823800;78;21615;-75
2020/12/03 11:01:31;;;;;;;160.70;59.63;;;;;;;-0.75;83.13;99940.36;1822857;78;21112;-75
2020/12/03 11:03:59;;;;;;;256.05;85.72;;;;;;;-0.77;83.14;99940.92;1782515;78;21202;-75
2020/12/03 11:06:28;;;;;;;210.35;70.40;;;;;;;-0.77;83.15;99937.46;1771281;78;21644;-74
2020/12/03 11:08:55;;;;;;;330.35;112.47;;;;;;;-0.81;83.18;99928.99;1806097;78;21163;-74
2020/12/03 11:11:22;;;;;;;181.10;71.85;;;;;;;-0.81;83.18;99936.84;1795788;78;21191;-74
2020/12/03 11:13:48;;;;;;;170.00;66.28;;;;;;;-0.72;83.20;99930.97;1750608;79;21715;-74
2020/12/03 11:16:15;;;;;;;153.72;63.70;;;;;;;-0.66;83.21;99935.76;1799848;78;21615;-75
2020/12/03 11:18:45;;;;;;;290.85;104.20;;;;;;;-0.60;83.22;99936.61;1821291;78;21104;-75
2020/12/03 11:21:22;;;;;;;192.85;74.55;;;;;;;-0.59;83.20;99927.82;1810131;78;21199;-73
2020/12/03 11:24:18;;;;;;;105.85;45.95;;;;;;;-0.60;83.16;99926.14;1800608;79;21148;-73
2020/12/03 11:26:45;;;;;;;137.22;62.27;;;;;;;-0.60;83.16;99922.21;1805196;79;21128;-73
2020/12/03 11:29:13;;;;;;;206.60;71.05;;;;;;;-0.51;83.20;99921.56;1805451;79;21192;-73
2020/12/03 11:31:39;;;;;;;141.97;58.83;;;;;;;-0.47;83.17;99921.34;1805547;78;21137;-73
2020/12/03 11:34:06;;;;;;;110.92;54.38;;;;;;;-0.46;83.15;99921.70;1805212;78;21597;-73
2020/12/03 11:36:38;;;;;;;265.12;98.33;;;;;;;-0.42;83.19;99924.47;1805486;79;21199;-73
2020/12/03 11:39:09;;;;;;;226.55;84.80;;;;;;;-0.44;83.19;99928.97;1805360;79;21625;-72
2020/12/03 11:47:27;;;;;;;134.15;51.85;;;;;;;-0.49;83.13;99902.30;1810638;78;21187;-72
2020/12/03 11:49:30;;;;;;;168.75;55.83;;;;;;;-0.60;83.12;99894.72;1807008;79;21595;-72
2020/12/03 11:52:13;;;;;;;185.25;63.02;;;;;;;-0.65;83.11;99892.93;1810811;78;21577;-72
2020/12/03 11:54:39;;;;;;;150.72;53.80;;;;;;;-0.69;83.11;99888.86;1811273;78;21198;-72
2020/12/03 11:57:06;;;;;;;104.63;43.78;;;;;;;-0.70;83.09;99887.17;1810449;79;21168;-72